Oil City, Louisiana
Current Conditions -  °F | °C
As of 11:13 AM on Friday 21 Nov 2014 (Local Time) from KDTN Reporting Station
Light Rain Light Rain  
Wind Chill: 56°   Ceiling: 3600
Heat Index: 56°   Visibility: 5mi
Dew Point: 54°   Wind: 7mph
Humidity: 93%   Direction: 140°SE
Pressure: 30.22"   Gusts: NA
Location:  32.74°N, 93.97°W
Report Text: KDTN 211713Z 14006KT 5SM -RA BR FEW007 OVC036 13/12 A3022 RMK AO2 P0001 T01330122
Loading
Personal Weather Stations






























Interactive Weather Map New forecast layout! Learn more

10-Day Weather Forecast

Advertisements
Track Severe Weather on mobile